Time;durP1;ratioP1;P1;durP2;ratioP2;P2;SDS_P1;SDS_P2;PMS_P1;PMS_P2;Temp;Humidity;BMP_temperature;BMP_pressure;BME280_temperature;BME280_humidity;BME280_pressure;Samples;Min_cycle;Max_cycle;Signal;HPM_P1;HPM_P2
2021/10/09 00:01:06;;;;;;;29.30;14.95;;;;;;;;;;5088652;28;20047;-86
2021/10/09 00:03:31;;;;;;;24.10;14.30;;;;;;;;;;5073205;28;20016;-86
2021/10/09 00:05:57;;;;;;;24.70;14.93;;;;;;;;;;5088564;28;20031;-86
2021/10/09 00:08:22;;;;;;;26.17;14.98;;;;;;;;;;5072603;28;20430;-86
2021/10/09 00:10:47;;;;;;;27.77;14.65;;;;;;;;;;5088396;28;20020;-86
2021/10/09 00:13:13;;;;;;;29.63;15.45;;;;;;;;;;5088469;28;20016;-86
2021/10/09 00:15:38;;;;;;;25.70;15.35;;;;;;;;;;5055162;28;20017;-86
2021/10/09 00:18:03;;;;;;;28.70;16.02;;;;;;;;;;5054937;28;20032;-86
2021/10/09 00:20:29;;;;;;;26.27;14.68;;;;;;;;;;5088469;28;20013;-86
2021/10/09 00:22:54;;;;;;;28.63;15.48;;;;;;;;;;5083955;28;20060;-86
2021/10/09 00:25:20;;;;;;;27.88;15.60;;;;;;;;;;5054748;28;20024;-86
2021/10/09 00:27:46;;;;;;;27.52;15.45;;;;;;;;;;5088490;28;20027;-86
2021/10/09 00:30:11;;;;;;;27.80;14.20;;;;;;;;;;5086908;28;20430;-86
2021/10/09 00:32:36;;;;;;;28.33;15.18;;;;;;;;;;5088369;28;20009;-86
2021/10/09 00:35:01;;;;;;;30.45;15.40;;;;;;;;;;5072968;28;20096;-86
2021/10/09 00:37:27;;;;;;;29.50;14.27;;;;;;;;;;5088446;28;20044;-86
2021/10/09 00:39:52;;;;;;;28.67;15.27;;;;;;;;;;5054842;28;20048;-86
2021/10/09 00:42:17;;;;;;;26.90;14.82;;;;;;;;;;5088186;28;20028;-86
2021/10/09 00:44:43;;;;;;;29.85;15.05;;;;;;;;;;5088166;28;20016;-86
2021/10/09 00:47:08;;;;;;;26.13;14.77;;;;;;;;;;5054713;28;20020;-86
2021/10/09 00:49:33;;;;;;;24.75;13.68;;;;;;;;;;5088320;28;20016;-86
2021/10/09 00:51:58;;;;;;;25.58;14.52;;;;;;;;;;5072574;28;20066;-87
2021/10/09 00:54:25;;;;;;;31.25;14.73;;;;;;;;;;5086586;28;20099;-86
2021/10/09 00:56:51;;;;;;;29.08;15.15;;;;;;;;;;5054759;28;20459;-87
2021/10/09 00:59:17;;;;;;;26.95;15.15;;;;;;;;;;5054464;28;20059;-86
2021/10/09 01:01:42;;;;;;;30.48;16.02;;;;;;;;;;5088227;28;20012;-87
2021/10/09 01:04:08;;;;;;;28.98;15.88;;;;;;;;;;5087955;28;20031;-86
2021/10/09 01:06:33;;;;;;;28.27;15.25;;;;;;;;;;5088023;28;20103;-86
2021/10/09 01:08:59;;;;;;;31.80;16.75;;;;;;;;;;5085248;28;20024;-86
2021/10/09 01:11:24;;;;;;;29.27;15.45;;;;;;;;;;5091687;28;20020;-86
2021/10/09 01:13:50;;;;;;;29.48;15.02;;;;;;;;;;5091705;28;20062;-86
2021/10/09 01:16:19;;;;;;;28.77;16.08;;;;;;;;;;5091580;28;20440;-86
2021/10/09 01:18:46;;;;;;;28.58;15.55;;;;;;;;;;5091713;28;20027;-86
2021/10/09 01:21:12;;;;;;;32.05;14.63;;;;;;;;;;5075838;28;20427;-86
2021/10/09 01:23:37;;;;;;;25.42;14.27;;;;;;;;;;5090310;28;20059;-86
2021/10/09 01:26:02;;;;;;;25.33;13.93;;;;;;;;;;5091487;28;20028;-86
2021/10/09 01:28:28;;;;;;;28.52;15.23;;;;;;;;;;5091462;28;20100;-87
2021/10/09 01:30:53;;;;;;;29.13;14.82;;;;;;;;;;5057632;28;20154;-86
2021/10/09 01:33:19;;;;;;;30.35;16.25;;;;;;;;;;5091276;28;20024;-86
2021/10/09 01:35:45;;;;;;;28.40;15.13;;;;;;;;;;5057767;28;20375;-86
2021/10/09 01:38:10;;;;;;;29.40;16.10;;;;;;;;;;5088148;28;20400;-86
2021/10/09 01:40:35;;;;;;;28.95;16.00;;;;;;;;;;5057541;28;20016;-86
2021/10/09 01:43:00;;;;;;;28.52;15.02;;;;;;;;;;5091163;28;20025;-86
2021/10/09 01:45:26;;;;;;;28.75;14.70;;;;;;;;;;5090957;28;20031;-86
2021/10/09 01:47:51;;;;;;;31.25;15.48;;;;;;;;;;5057383;28;20491;-86
2021/10/09 01:50:16;;;;;;;27.13;15.27;;;;;;;;;;5075361;28;20067;-86
2021/10/09 01:52:41;;;;;;;26.48;14.45;;;;;;;;;;5084904;28;20070;-86
2021/10/09 01:55:07;;;;;;;32.50;16.05;;;;;;;;;;5090806;28;20345;-86
2021/10/09 01:57:32;;;;;;;25.52;15.15;;;;;;;;;;5090682;28;20486;-86
2021/10/09 01:59:57;;;;;;;28.08;15.75;;;;;;;;;;5090854;28;20091;-86
2021/10/09 02:02:22;;;;;;;27.67;15.15;;;;;;;;;;5089496;28;20128;-86
2021/10/09 02:04:48;;;;;;;36.20;16.52;;;;;;;;;;5056768;28;20028;-87
2021/10/09 02:07:18;;;;;;;29.70;15.88;;;;;;;;;;5090714;28;20415;-86
2021/10/09 02:09:43;;;;;;;30.08;15.40;;;;;;;;;;5057032;28;20028;-86
2021/10/09 02:12:08;;;;;;;27.40;14.75;;;;;;;;;;5090648;28;20016;-86
2021/10/09 02:25:46;;;;;;;34.25;16.15;;;;;;;;;;5074909;28;20108;-86
2021/10/09 02:28:12;;;;;;;33.63;16.98;;;;;;;;;;5056869;28;20024;-86
2021/10/09 02:30:38;;;;;;;33.00;16.50;;;;;;;;;;5074762;28;20039;-86
2021/10/09 02:33:04;;;;;;;30.92;16.92;;;;;;;;;;5056461;28;20028;-86
2021/10/09 02:35:29;;;;;;;33.80;16.65;;;;;;;;;;5089887;28;20008;-87
2021/10/09 02:37:54;;;;;;;31.38;16.00;;;;;;;;;;5090054;28;20016;-86
2021/10/09 02:40:19;;;;;;;28.55;14.88;;;;;;;;;;5090056;28;20498;-86
2021/10/09 02:42:44;;;;;;;29.20;16.27;;;;;;;;;;5089946;28;20384;-86
2021/10/09 02:45:10;;;;;;;31.63;16.25;;;;;;;;;;5089940;28;20036;-86
2021/10/09 02:47:35;;;;;;;28.65;15.57;;;;;;;;;;5079771;28;20040;-86
2021/10/09 02:50:02;;;;;;;29.60;15.85;;;;;;;;;;5089887;28;20028;-86
2021/10/09 02:52:27;;;;;;;32.00;15.90;;;;;;;;;;5089724;28;20055;-86
2021/10/09 02:54:52;;;;;;;26.45;14.65;;;;;;;;;;5089816;28;20053;-86
2021/10/09 02:57:18;;;;;;;30.50;16.15;;;;;;;;;;5089833;28;20024;-86
2021/10/09 02:59:43;;;;;;;30.80;16.15;;;;;;;;;;5089502;28;20038;-86
2021/10/09 03:02:08;;;;;;;30.15;15.25;;;;;;;;;;5077192;28;20020;-86
2021/10/09 03:04:33;;;;;;;28.98;15.98;;;;;;;;;;5055791;28;20029;-86
2021/10/09 03:06:58;;;;;;;30.98;15.80;;;;;;;;;;5089619;28;20024;-87
2021/10/09 03:09:24;;;;;;;31.30;15.93;;;;;;;;;;5055791;28;20016;-86
2021/10/09 03:11:49;;;;;;;31.60;15.95;;;;;;;;;;5055970;28;20020;-86
2021/10/09 03:14:14;;;;;;;27.52;15.05;;;;;;;;;;5089320;28;20372;-86
2021/10/09 03:16:39;;;;;;;33.60;16.80;;;;;;;;;;5083122;28;20487;-86
2021/10/09 03:19:04;;;;;;;30.52;15.63;;;;;;;;;;5048966;28;20043;-86
2021/10/09 03:21:30;;;;;;;29.45;14.80;;;;;;;;;;5089141;28;20107;-86
2021/10/09 03:23:55;;;;;;;30.20;15.52;;;;;;;;;;5089396;28;20023;-86
2021/10/09 03:26:20;;;;;;;32.92;16.17;;;;;;;;;;5055552;28;20106;-86
2021/10/09 03:28:45;;;;;;;34.60;16.65;;;;;;;;;;5089221;28;20013;-86
2021/10/09 03:31:11;;;;;;;30.40;15.75;;;;;;;;;;5088484;28;20046;-86
2021/10/09 03:33:36;;;;;;;36.55;16.42;;;;;;;;;;5088739;28;20498;-86
2021/10/09 03:36:01;;;;;;;29.63;15.95;;;;;;;;;;5088894;28;20023;-86
2021/10/09 03:38:27;;;;;;;33.38;16.38;;;;;;;;;;5055226;28;20013;-86
2021/10/09 03:41:01;;;;;;;30.40;16.23;;;;;;;;;;5089352;28;20012;-86
2021/10/09 03:43:26;;;;;;;34.58;16.60;;;;;;;;;;5088833;28;20172;-86
2021/10/09 03:46:18;;;;;;;30.67;15.98;;;;;;;;;;5088912;28;20058;-86
2021/10/09 03:53:34;;;;;;;33.60;17.35;;;;;;;;;;5073423;28;20025;-86
2021/10/09 03:55:59;;;;;;;31.67;16.58;;;;;;;;;;5055270;28;20460;-86
2021/10/09 03:58:25;;;;;;;34.67;17.77;;;;;;;;;;5088808;28;20013;-86
2021/10/09 04:00:50;;;;;;;35.72;17.15;;;;;;;;;;5088836;28;20410;-86
2021/10/09 04:03:15;;;;;;;36.70;16.73;;;;;;;;;;5055324;28;20020;-86
2021/10/09 04:05:40;;;;;;;29.48;15.25;;;;;;;;;;5088488;28;20055;-86
2021/10/09 04:08:06;;;;;;;33.78;16.23;;;;;;;;;;5080527;28;20025;-86
2021/10/09 04:10:32;;;;;;;33.08;16.55;;;;;;;;;;5051038;28;20016;-86
2021/10/09 04:12:58;;;;;;;30.70;15.18;;;;;;;;;;5088716;28;20023;-86
2021/10/09 04:15:23;;;;;;;27.35;14.73;;;;;;;;;;5088764;28;20012;-86
2021/10/09 04:17:48;;;;;;;29.25;14.40;;;;;;;;;;5088485;28;20009;-86
2021/10/09 04:20:13;;;;;;;30.27;15.55;;;;;;;;;;5088495;28;20028;-86
2021/10/09 04:22:38;;;;;;;30.35;15.45;;;;;;;;;;5086768;28;20166;-87
2021/10/09 04:25:06;;;;;;;28.80;14.55;;;;;;;;;;5088686;28;20017;-87
2021/10/09 04:27:31;;;;;;;28.75;14.55;;;;;;;;;;5086917;28;20025;-85
2021/10/09 04:29:56;;;;;;;30.02;15.77;;;;;;;;;;5088619;28;20111;-86
2021/10/09 04:32:21;;;;;;;33.88;15.63;;;;;;;;;;5088691;28;20456;-87
2021/10/09 04:34:47;;;;;;;31.00;15.65;;;;;;;;;;5088464;28;20013;-86
2021/10/09 04:37:12;;;;;;;31.42;15.82;;;;;;;;;;5088643;28;20074;-86
2021/10/09 04:39:37;;;;;;;32.00;15.50;;;;;;;;;;5074204;28;20025;-86
2021/10/09 04:42:02;;;;;;;37.47;16.48;;;;;;;;;;5073367;28;20028;-86
2021/10/09 04:44:28;;;;;;;31.90;15.40;;;;;;;;;;5092161;28;20468;-86
2021/10/09 04:46:53;;;;;;;32.85;15.77;;;;;;;;;;5092286;28;20361;-86
2021/10/09 04:49:18;;;;;;;34.20;16.15;;;;;;;;;;5092186;28;20050;-86
2021/10/09 04:51:43;;;;;;;34.10;15.63;;;;;;;;;;5058460;28;20013;-86
2021/10/09 04:54:09;;;;;;;31.33;16.25;;;;;;;;;;5058656;28;20387;-87
2021/10/09 04:56:34;;;;;;;32.92;16.48;;;;;;;;;;5076278;28;20487;-86
2021/10/09 04:58:59;;;;;;;30.40;15.98;;;;;;;;;;5092078;28;20021;-86
2021/10/09 05:01:25;;;;;;;33.53;15.95;;;;;;;;;;5081061;28;20029;-87
2021/10/09 05:03:50;;;;;;;31.65;15.55;;;;;;;;;;5057972;28;20028;-86
2021/10/09 05:06:15;;;;;;;29.33;15.57;;;;;;;;;;5058235;28;20118;-86
2021/10/09 05:08:40;;;;;;;32.13;15.70;;;;;;;;;;5091803;28;20019;-86
2021/10/09 05:11:05;;;;;;;29.23;15.07;;;;;;;;;;5091690;28;20017;-86
2021/10/09 05:13:31;;;;;;;28.60;14.70;;;;;;;;;;5046777;28;20025;-86
2021/10/09 05:15:56;;;;;;;29.50;14.82;;;;;;;;;;5055464;28;20035;-86
2021/10/09 05:18:21;;;;;;;30.13;15.23;;;;;;;;;;5091714;28;20031;-86
2021/10/09 05:20:46;;;;;;;31.30;14.68;;;;;;;;;;5091395;28;20119;-86
2021/10/09 05:23:12;;;;;;;32.45;15.82;;;;;;;;;;5091565;28;20016;-86
2021/10/09 05:25:38;;;;;;;34.35;16.20;;;;;;;;;;5091441;28;20021;-86
2021/10/09 05:28:10;;;;;;;32.83;15.55;;;;;;;;;;5091505;28;20024;-86
2021/10/09 05:30:35;;;;;;;31.85;16.33;;;;;;;;;;5091455;28;20028;-86
2021/10/09 05:33:46;;;;;;;36.22;16.73;;;;;;;;;;5075676;28;20024;-86
2021/10/09 05:35:46;;;;;;;39.42;16.10;;;;;;;;;;5064825;28;20033;-86
2021/10/09 05:38:12;;;;;;;31.38;15.80;;;;;;;;;;5075593;28;20023;-86
2021/10/09 05:40:37;;;;;;;34.75;16.67;;;;;;;;;;5091521;28;20113;-86
2021/10/09 05:43:02;;;;;;;31.25;16.23;;;;;;;;;;5091170;28;20033;-87
2021/10/09 05:45:28;;;;;;;40.17;17.80;;;;;;;;;;5091168;28;20025;-87
2021/10/09 05:47:53;;;;;;;39.55;17.27;;;;;;;;;;5091048;28;20035;-86
2021/10/09 05:50:21;;;;;;;34.10;15.52;;;;;;;;;;5091096;28;20035;-87
2021/10/09 05:55:37;;;;;;;34.08;15.50;;;;;;;;;;5043895;28;20064;-86
2021/10/09 05:58:18;;;;;;;32.55;15.18;;;;;;;;;;5057051;28;20023;-86
2021/10/09 06:25:38;;;;;;;30.70;14.95;;;;;;;;;;5075145;28;20023;-86
2021/10/09 07:00:18;;;;;;;33.45;15.45;;;;;;;;;;5074049;28;20035;-87
2021/10/09 07:02:43;;;;;;;33.53;15.75;;;;;;;;;;5089709;28;20029;-87
2021/10/09 07:05:10;;;;;;;41.00;16.33;;;;;;;;;;5057025;28;20065;-86
2021/10/09 07:07:47;;;;;;;32.83;15.80;;;;;;;;;;5089451;28;20107;-86
2021/10/09 07:10:13;;;;;;;37.67;17.52;;;;;;;;;;5087897;28;20025;-87
2021/10/09 07:12:38;;;;;;;39.35;18.65;;;;;;;;;;5085635;28;20365;-87
2021/10/09 07:15:04;;;;;;;39.70;18.40;;;;;;;;;;5086165;28;20057;-87
2021/10/09 07:17:29;;;;;;;36.65;16.00;;;;;;;;;;5052360;28;20023;-87
2021/10/09 07:19:55;;;;;;;43.35;18.50;;;;;;;;;;5053295;28;20017;-86
2021/10/09 07:22:20;;;;;;;34.58;16.48;;;;;;;;;;5044492;28;20032;-87
2021/10/09 07:24:45;;;;;;;35.25;18.40;;;;;;;;;;5072866;28;20138;-87
2021/10/09 07:27:10;;;;;;;46.70;21.73;;;;;;;;;;5060155;28;20070;-87
2021/10/09 07:29:35;;;;;;;41.58;18.73;;;;;;;;;;5055737;28;20038;-87
2021/10/09 07:32:01;;;;;;;45.22;20.48;;;;;;;;;;5045683;28;20023;-86
2021/10/09 07:34:26;;;;;;;46.17;20.52;;;;;;;;;;5059512;28;20051;-87
2021/10/09 07:36:51;;;;;;;44.60;21.45;;;;;;;;;;5064308;28;20104;-87
2021/10/09 07:39:16;;;;;;;48.03;22.95;;;;;;;;;;5059612;28;20028;-86
2021/10/09 07:41:41;;;;;;;55.45;25.52;;;;;;;;;;5048158;28;20024;-87
2021/10/09 07:44:07;;;;;;;52.97;25.92;;;;;;;;;;5083339;28;20017;-86
2021/10/09 07:46:32;;;;;;;56.97;25.02;;;;;;;;;;5057062;28;20024;-86
2021/10/09 07:48:57;;;;;;;55.38;23.92;;;;;;;;;;5086051;28;20020;-86
2021/10/09 07:51:23;;;;;;;56.15;25.52;;;;;;;;;;5044135;28;20025;-86
2021/10/09 07:53:48;;;;;;;54.47;26.00;;;;;;;;;;5053957;28;20039;-87
2021/10/09 07:56:13;;;;;;;53.83;23.70;;;;;;;;;;5056749;28;20519;-87
2021/10/09 07:58:38;;;;;;;51.65;24.30;;;;;;;;;;5053171;28;20021;-86
2021/10/09 08:01:04;;;;;;;65.57;25.85;;;;;;;;;;5073486;28;20021;-87
2021/10/09 08:03:29;;;;;;;56.88;26.20;;;;;;;;;;5040274;28;20017;-86
2021/10/09 08:05:54;;;;;;;58.85;25.45;;;;;;;;;;5042156;28;20024;-86
2021/10/09 08:08:20;;;;;;;54.08;23.30;;;;;;;;;;5048161;28;20074;-86
2021/10/09 08:10:47;;;;;;;59.33;25.70;;;;;;;;;;5056155;28;20032;-87
2021/10/09 08:13:13;;;;;;;63.65;25.77;;;;;;;;;;5074751;28;20020;-87
2021/10/09 08:15:38;;;;;;;66.50;26.10;;;;;;;;;;5062700;28;20494;-86
2021/10/09 08:18:03;;;;;;;56.58;24.23;;;;;;;;;;5097287;28;20387;-86
2021/10/09 08:20:28;;;;;;;56.90;25.42;;;;;;;;;;5055473;28;20024;-86
2021/10/09 08:23:03;;;;;;;54.65;24.55;;;;;;;;;;5091854;28;20024;-86
2021/10/09 08:35:21;;;;;;;60.65;25.42;;;;;;;;;;5077145;28;20082;-86
2021/10/09 08:36:19;;;;;;;62.35;28.27;;;;;;;;;;5076853;28;20078;-86
2021/10/09 08:38:47;;;;;;;68.57;27.02;;;;;;;;;;5058818;28;20021;-86
2021/10/09 08:41:13;;;;;;;53.42;22.95;;;;;;;;;;5044691;28;20079;-86
2021/10/09 08:43:41;;;;;;;73.32;27.58;;;;;;;;;;5063037;28;20044;-86
2021/10/09 08:46:07;;;;;;;65.32;29.75;;;;;;;;;;5064523;28;20024;-86
2021/10/09 08:48:40;;;;;;;62.50;26.15;;;;;;;;;;5089207;28;20020;-86
2021/10/09 08:51:06;;;;;;;54.42;23.23;;;;;;;;;;5080264;28;20385;-86
2021/10/09 08:53:41;;;;;;;45.25;19.80;;;;;;;;;;5069025;28;20024;-86
2021/10/09 08:56:07;;;;;;;65.47;26.02;;;;;;;;;;5092026;28;20017;-86
2021/10/09 08:58:41;;;;;;;62.00;25.67;;;;;;;;;;5091824;28;20019;-86
2021/10/09 09:01:20;;;;;;;57.40;25.25;;;;;;;;;;5091951;28;20028;-87
2021/10/09 09:41:31;;;;;;;55.72;24.00;;;;;;;;;;5075220;28;20012;-86
2021/10/09 09:43:57;;;;;;;51.03;21.15;;;;;;;;;;5048410;28;20028;-86
2021/10/09 09:46:26;;;;;;;51.03;23.17;;;;;;;;;;5097991;28;20028;-86
2021/10/09 09:48:52;;;;;;;48.47;21.02;;;;;;;;;;5091029;28;20036;-87
2021/10/09 09:51:18;;;;;;;50.05;22.58;;;;;;;;;;5090810;28;20025;-85
2021/10/09 09:53:45;;;;;;;53.05;22.58;;;;;;;;;;5057425;28;20013;-86
2021/10/09 09:56:11;;;;;;;57.13;23.27;;;;;;;;;;5090568;28;20021;-86
2021/10/09 09:58:40;;;;;;;51.65;22.13;;;;;;;;;;5090733;28;20027;-86
2021/10/09 10:01:07;;;;;;;52.20;23.50;;;;;;;;;;5062807;28;20032;-85
2021/10/09 10:03:32;;;;;;;54.53;23.65;;;;;;;;;;5077613;28;20017;-87
2021/10/09 10:05:58;;;;;;;53.05;22.67;;;;;;;;;;5091381;28;20115;-89
2021/10/09 10:08:25;;;;;;;47.85;19.42;;;;;;;;;;5080323;28;20025;-89
2021/10/09 10:10:51;;;;;;;53.35;21.38;;;;;;;;;;5090678;28;20100;-89
2021/10/09 10:13:17;;;;;;;48.80;20.92;;;;;;;;;;5047244;28;20021;-89
2021/10/09 10:15:42;;;;;;;32.38;13.32;;;;;;;;;;5054625;28;20034;-89
2021/10/09 10:18:08;;;;;;;39.15;15.73;;;;;;;;;;5069262;28;20456;-89
2021/10/09 10:20:47;;;;;;;40.25;18.17;;;;;;;;;;5090505;28;20032;-89
2021/10/09 10:23:30;;;;;;;45.22;18.83;;;;;;;;;;5077163;28;20024;-88
2021/10/09 10:26:15;;;;;;;40.83;17.38;;;;;;;;;;5056388;28;20027;-89
2021/10/09 10:28:40;;;;;;;47.40;20.75;;;;;;;;;;5096500;28;20074;-89
2021/10/09 10:31:06;;;;;;;50.30;20.33;;;;;;;;;;5065928;28;20529;-89
2021/10/09 10:33:37;;;;;;;43.35;18.98;;;;;;;;;;5094768;28;20112;-89
2021/10/09 10:36:02;;;;;;;36.13;17.15;;;;;;;;;;5090100;28;20040;-89
2021/10/09 10:38:34;;;;;;;43.40;19.23;;;;;;;;;;5074314;28;20430;-89
2021/10/09 10:41:01;;;;;;;38.35;19.35;;;;;;;;;;5054723;28;20025;-90
2021/10/09 10:43:51;;;;;;;40.53;17.13;;;;;;;;;;5089373;28;20472;-89
2021/10/09 10:49:13;;;;;;;37.58;18.60;;;;;;;;;;5086106;28;20036;-89
2021/10/09 10:54:35;;;;;;;40.97;16.42;;;;;;;;;;5074078;28;20468;-90
2021/10/09 10:57:03;;;;;;;38.95;17.75;;;;;;;;;;5056133;28;20027;-89
2021/10/09 10:59:46;;;;;;;38.55;16.05;;;;;;;;;;5065648;28;20161;-89
2021/10/09 11:02:13;;;;;;;29.35;14.45;;;;;;;;;;5042401;28;20056;-89
2021/10/09 11:04:40;;;;;;;31.83;16.00;;;;;;;;;;5091624;28;20483;-90
2021/10/09 11:07:06;;;;;;;37.15;17.15;;;;;;;;;;5073445;28;20035;-89
2021/10/09 11:09:31;;;;;;;35.78;15.70;;;;;;;;;;5091519;28;20654;-89
2021/10/09 11:11:56;;;;;;;36.03;14.57;;;;;;;;;;5089546;28;20108;-89
2021/10/09 11:14:22;;;;;;;28.98;13.32;;;;;;;;;;5055261;28;20019;-89
2021/10/09 11:16:48;;;;;;;35.53;15.35;;;;;;;;;;5089312;28;20099;-89
2021/10/09 11:19:13;;;;;;;41.83;15.32;;;;;;;;;;5089284;28;20442;-89
2021/10/09 11:21:51;;;;;;;33.78;14.13;;;;;;;;;;5055888;28;20376;-89
2021/10/09 11:24:17;;;;;;;30.38;14.82;;;;;;;;;;5090870;28;20070;-89
2021/10/09 11:26:52;;;;;;;34.50;14.18;;;;;;;;;;5055468;28;20384;-90
2021/10/09 11:29:17;;;;;;;33.70;15.13;;;;;;;;;;5055406;28;20467;-90
2021/10/09 11:31:43;;;;;;;32.67;14.93;;;;;;;;;;5089409;28;20062;-89
2021/10/09 11:34:10;;;;;;;36.55;13.98;;;;;;;;;;5055608;28;20012;-90
2021/10/09 11:36:39;;;;;;;27.73;14.07;;;;;;;;;;5055305;28;20505;-90
2021/10/09 11:39:09;;;;;;;25.08;10.52;;;;;;;;;;5088960;28;20020;-90
2021/10/09 11:41:35;;;;;;;23.80;11.65;;;;;;;;;;5077478;28;20023;-90
2021/10/09 11:44:04;;;;;;;24.70;12.05;;;;;;;;;;5088267;28;20024;-89
2021/10/09 11:55:12;;;;;;;23.57;10.90;;;;;;;;;;5070875;28;20482;-90
2021/10/09 11:57:38;;;;;;;24.02;12.25;;;;;;;;;;5081856;28;20408;-89
2021/10/09 12:00:23;;;;;;;26.20;13.05;;;;;;;;;;5055041;28;20104;-89
2021/10/09 12:02:48;;;;;;;22.83;10.77;;;;;;;;;;5069335;28;20035;-89
2021/10/09 12:05:13;;;;;;;23.67;11.20;;;;;;;;;;5055005;28;20028;-89
2021/10/09 12:07:38;;;;;;;21.52;10.20;;;;;;;;;;5088785;28;20025;-89
2021/10/09 12:10:11;;;;;;;21.50;10.00;;;;;;;;;;5088701;28;20021;-90
2021/10/09 12:12:37;;;;;;;20.58;11.00;;;;;;;;;;5055916;28;20048;-90
2021/10/09 12:15:02;;;;;;;20.05;10.45;;;;;;;;;;5065012;28;20024;-89
2021/10/09 12:17:35;;;;;;;24.83;11.85;;;;;;;;;;5088325;28;20050;-89
2021/10/09 12:20:02;;;;;;;30.35;12.45;;;;;;;;;;5088782;28;20092;-89
2021/10/09 12:22:28;;;;;;;24.85;10.45;;;;;;;;;;5072447;28;20021;-90
2021/10/09 12:24:54;;;;;;;23.98;10.85;;;;;;;;;;5054863;28;20150;-90
2021/10/09 12:27:20;;;;;;;23.15;11.18;;;;;;;;;;5073115;28;20027;-89
2021/10/09 12:29:55;;;;;;;23.15;9.60;;;;;;;;;;5054925;28;20059;-89
2021/10/09 12:32:20;;;;;;;21.08;10.20;;;;;;;;;;5055259;28;20372;-90
2021/10/09 12:34:46;;;;;;;22.08;9.95;;;;;;;;;;5068513;28;20029;-89
2021/10/09 12:37:12;;;;;;;16.00;8.63;;;;;;;;;;5054938;28;20028;-89
2021/10/09 12:39:37;;;;;;;27.90;10.55;;;;;;;;;;5088336;28;20031;-90
2021/10/09 12:42:02;;;;;;;18.05;8.80;;;;;;;;;;5058723;28;20020;-89
2021/10/09 12:44:28;;;;;;;19.05;9.50;;;;;;;;;;5077955;28;20074;-90
2021/10/09 12:46:53;;;;;;;22.15;11.13;;;;;;;;;;5055183;28;20176;-90
2021/10/09 12:49:18;;;;;;;18.83;9.38;;;;;;;;;;5055357;28;20052;-90
2021/10/09 12:51:43;;;;;;;23.55;9.85;;;;;;;;;;5054237;28;20017;-89
2021/10/09 12:54:09;;;;;;;25.10;9.80;;;;;;;;;;5054824;28;20029;-89
2021/10/09 12:56:36;;;;;;;18.75;10.20;;;;;;;;;;5057192;28;20063;-90
2021/10/09 12:59:01;;;;;;;23.20;9.85;;;;;;;;;;5086044;28;20028;-89
2021/10/09 13:01:27;;;;;;;23.15;10.20;;;;;;;;;;5054367;28;20025;-89
2021/10/09 13:03:52;;;;;;;23.63;9.82;;;;;;;;;;5090190;28;20017;-90
2021/10/09 13:06:17;;;;;;;17.48;8.63;;;;;;;;;;5058666;28;20032;-89
2021/10/09 13:08:43;;;;;;;19.20;8.50;;;;;;;;;;5043910;28;20357;-89
2021/10/09 13:11:08;;;;;;;21.08;8.40;;;;;;;;;;5058096;28;20016;-90
2021/10/09 13:13:33;;;;;;;15.57;7.30;;;;;;;;;;5058323;28;20500;-90
2021/10/09 13:15:58;;;;;;;18.45;7.65;;;;;;;;;;5058154;28;20099;-90
2021/10/09 13:18:23;;;;;;;17.65;8.30;;;;;;;;;;5057908;28;20021;-88
2021/10/09 13:20:49;;;;;;;18.60;8.88;;;;;;;;;;5057658;28;20016;-88
2021/10/09 13:23:14;;;;;;;18.67;8.23;;;;;;;;;;5057920;28;20129;-89
2021/10/09 13:25:40;;;;;;;21.40;9.13;;;;;;;;;;5069701;28;20012;-88
2021/10/09 13:28:06;;;;;;;16.52;8.10;;;;;;;;;;5076165;28;20036;-89
2021/10/09 13:30:31;;;;;;;21.30;8.15;;;;;;;;;;5057704;28;20029;-89
2021/10/09 13:32:56;;;;;;;15.65;7.28;;;;;;;;;;5057412;28;20024;-89
2021/10/09 13:35:22;;;;;;;18.88;8.60;;;;;;;;;;5057451;28;20017;-88
2021/10/09 13:37:52;;;;;;;16.75;8.73;;;;;;;;;;5057471;28;20349;-89
2021/10/09 13:40:17;;;;;;;15.40;8.13;;;;;;;;;;5057698;28;20016;-89
2021/10/09 13:42:43;;;;;;;16.92;8.93;;;;;;;;;;5057585;28;20490;-89
2021/10/09 13:45:08;;;;;;;16.83;8.60;;;;;;;;;;5057527;28;20020;-89
2021/10/09 13:47:34;;;;;;;18.15;8.35;;;;;;;;;;5057455;28;20026;-89
2021/10/09 13:49:59;;;;;;;21.13;8.15;;;;;;;;;;5075063;28;20029;-89
2021/10/09 13:52:24;;;;;;;18.27;8.88;;;;;;;;;;5047435;28;20028;-89
2021/10/09 13:54:49;;;;;;;23.92;8.18;;;;;;;;;;5071049;28;20051;-89
2021/10/09 13:57:15;;;;;;;20.15;8.50;;;;;;;;;;5075383;28;20464;-89
2021/10/09 13:59:40;;;;;;;17.80;9.13;;;;;;;;;;5075146;28;20060;-89
2021/10/09 14:02:05;;;;;;;18.58;8.63;;;;;;;;;;5057229;28;20496;-89
2021/10/09 14:04:37;;;;;;;16.20;8.27;;;;;;;;;;5074865;28;20032;-89
2021/10/09 14:07:02;;;;;;;17.98;8.07;;;;;;;;;;5057299;28;20024;-89
2021/10/09 14:09:27;;;;;;;19.48;9.52;;;;;;;;;;5057141;28;20021;-89
2021/10/09 14:11:54;;;;;;;19.40;8.50;;;;;;;;;;5057133;28;20031;-89
2021/10/09 14:14:20;;;;;;;17.02;9.07;;;;;;;;;;5057018;28;20456;-89
2021/10/09 14:16:45;;;;;;;18.48;9.60;;;;;;;;;;5056968;28;20016;-89
2021/10/09 14:19:10;;;;;;;20.38;8.60;;;;;;;;;;5056965;28;20031;-89
2021/10/09 14:21:36;;;;;;;20.10;8.95;;;;;;;;;;5056818;28;20460;-89
2021/10/09 14:24:01;;;;;;;17.35;9.07;;;;;;;;;;5056895;28;20033;-89
2021/10/09 14:26:26;;;;;;;22.05;9.25;;;;;;;;;;5056853;28;20063;-89
2021/10/09 14:28:51;;;;;;;17.45;8.00;;;;;;;;;;5056890;28;20024;-89
2021/10/09 14:31:16;;;;;;;19.13;8.05;;;;;;;;;;5056419;28;20435;-89
2021/10/09 14:33:42;;;;;;;16.40;8.38;;;;;;;;;;5056626;28;20024;-89
2021/10/09 14:36:07;;;;;;;18.67;8.70;;;;;;;;;;5056402;28;20012;-89
2021/10/09 14:38:32;;;;;;;17.98;8.75;;;;;;;;;;5056604;28;20112;-89
2021/10/09 14:40:59;;;;;;;18.60;7.60;;;;;;;;;;5074499;28;20020;-89
2021/10/09 14:43:24;;;;;;;15.98;8.10;;;;;;;;;;5056342;28;20131;-89
2021/10/09 14:45:53;;;;;;;21.20;7.90;;;;;;;;;;5056550;28;20048;-89
2021/10/09 14:48:34;;;;;;;18.35;8.20;;;;;;;;;;5056619;28;20024;-89
2021/10/09 14:51:09;;;;;;;20.20;8.27;;;;;;;;;;5056128;28;20020;-88
2021/10/09 15:20:07;;;;;;;15.82;7.85;;;;;;;;;;5074246;28;20036;-90
2021/10/09 15:22:33;;;;;;;19.35;7.55;;;;;;;;;;5058479;28;20016;-91
2021/10/09 15:24:58;;;;;;;16.88;6.75;;;;;;;;;;5058135;28;20020;-91
2021/10/09 15:27:25;;;;;;;18.60;7.25;;;;;;;;;;5055664;28;20432;-91
2021/10/09 15:29:50;;;;;;;15.98;7.53;;;;;;;;;;5056053;28;20120;-91
2021/10/09 15:32:15;;;;;;;19.15;7.65;;;;;;;;;;5044202;28;20052;-91
2021/10/09 15:34:41;;;;;;;14.25;7.63;;;;;;;;;;5053999;28;20025;-91
2021/10/09 15:37:07;;;;;;;16.70;7.45;;;;;;;;;;5056140;28;20543;-91
2021/10/09 15:39:32;;;;;;;21.90;8.20;;;;;;;;;;5056023;28;20044;-92
2021/10/09 15:41:57;;;;;;;22.08;7.43;;;;;;;;;;5055599;28;20017;-91
2021/10/09 15:44:22;;;;;;;18.58;6.93;;;;;;;;;;5060296;28;20028;-91
2021/10/09 15:46:48;;;;;;;18.25;8.18;;;;;;;;;;5055992;28;20123;-91
2021/10/09 15:49:13;;;;;;;17.83;7.95;;;;;;;;;;5064874;28;20554;-91
2021/10/09 15:51:38;;;;;;;23.58;7.85;;;;;;;;;;5058399;28;20475;-91
2021/10/09 15:54:04;;;;;;;19.65;7.43;;;;;;;;;;5062654;28;20115;-91
2021/10/09 15:56:29;;;;;;;22.90;9.13;;;;;;;;;;5078194;28;20095;-91
2021/10/09 15:58:54;;;;;;;21.27;8.48;;;;;;;;;;5061555;28;20158;-92
2021/10/09 16:01:22;;;;;;;22.50;8.00;;;;;;;;;;5049498;28;20028;-91
2021/10/09 16:03:47;;;;;;;25.45;8.00;;;;;;;;;;5055260;28;20024;-91
2021/10/09 16:06:12;;;;;;;14.85;8.18;;;;;;;;;;5073625;28;20025;-91
2021/10/09 16:08:38;;;;;;;15.40;8.52;;;;;;;;;;5055434;28;20013;-90
2021/10/09 16:11:03;;;;;;;16.00;8.27;;;;;;;;;;5055571;28;20410;-91
2021/10/09 16:13:29;;;;;;;16.35;8.13;;;;;;;;;;5055798;28;20075;-91
2021/10/09 16:15:55;;;;;;;13.98;8.00;;;;;;;;;;5063296;28;20024;-91
2021/10/09 16:18:20;;;;;;;18.83;7.85;;;;;;;;;;5055436;28;20021;-92
2021/10/09 16:20:46;;;;;;;24.48;8.93;;;;;;;;;;5055820;28;20085;-91
2021/10/09 16:23:11;;;;;;;14.70;8.15;;;;;;;;;;5068276;28;20050;-91
2021/10/09 16:25:36;;;;;;;16.20;8.75;;;;;;;;;;5055562;28;20024;-91
2021/10/09 16:28:01;;;;;;;19.08;8.63;;;;;;;;;;5055517;28;20040;-90
2021/10/09 16:30:26;;;;;;;24.55;9.40;;;;;;;;;;5055512;28;20020;-91
2021/10/09 16:32:51;;;;;;;16.05;8.70;;;;;;;;;;5055127;28;20020;-91
2021/10/09 16:35:17;;;;;;;17.73;9.15;;;;;;;;;;5055552;28;20020;-91
2021/10/09 16:37:42;;;;;;;22.13;8.68;;;;;;;;;;5055544;28;20021;-91
2021/10/09 16:40:08;;;;;;;21.52;8.98;;;;;;;;;;5059349;28;20514;-91
2021/10/09 16:42:33;;;;;;;21.38;9.65;;;;;;;;;;5060226;28;20032;-91
2021/10/09 16:44:58;;;;;;;17.30;8.88;;;;;;;;;;5076473;28;20013;-90
2021/10/09 16:47:23;;;;;;;19.73;9.88;;;;;;;;;;5058985;28;20025;-90
2021/10/09 16:49:49;;;;;;;17.45;8.82;;;;;;;;;;5059071;28;20020;-90
2021/10/09 16:52:14;;;;;;;21.15;9.85;;;;;;;;;;5069425;28;20027;-90
2021/10/09 16:54:39;;;;;;;18.85;9.60;;;;;;;;;;5064556;28;20031;-90
2021/10/09 16:57:05;;;;;;;22.40;10.05;;;;;;;;;;5060151;28;20017;-91
2021/10/09 16:59:30;;;;;;;23.20;10.55;;;;;;;;;;5058982;28;20111;-90